sensor_id;sensor_type;location;lat;lon;timestamp;temperature;humidity
12847;DHT22;6492;48.128;8.320;2023-05-29T00:02:17;9.20;30.50
12847;DHT22;6492;48.128;8.320;2023-05-29T00:06:19;9.20;30.90
12847;DHT22;6492;48.128;8.320;2023-05-29T00:10:21;9.20;30.60
12847;DHT22;6492;48.128;8.320;2023-05-29T00:14:24;9.10;30.70
12847;DHT22;6492;48.128;8.320;2023-05-29T00:18:27;9.10;30.60
12847;DHT22;6492;48.128;8.320;2023-05-29T00:22:29;9.00;30.50
12847;DHT22;6492;48.128;8.320;2023-05-29T00:26:31;9.00;30.50
12847;DHT22;6492;48.128;8.320;2023-05-29T00:30:34;8.90;30.40
12847;DHT22;6492;48.128;8.320;2023-05-29T00:34:36;8.80;31.20
12847;DHT22;6492;48.128;8.320;2023-05-29T00:38:38;8.80;31.60
12847;DHT22;6492;48.128;8.320;2023-05-29T00:42:40;8.80;31.90
12847;DHT22;6492;48.128;8.320;2023-05-29T00:46:43;8.70;31.80
12847;DHT22;6492;48.128;8.320;2023-05-29T00:50:51;8.70;31.60
12847;DHT22;6492;48.128;8.320;2023-05-29T00:54:54;8.70;32.20
12847;DHT22;6492;48.128;8.320;2023-05-29T00:58:57;8.70;32.30
12847;DHT22;6492;48.128;8.320;2023-05-29T01:03:00;8.70;31.90
12847;DHT22;6492;48.128;8.320;2023-05-29T01:07:05;8.60;31.60
12847;DHT22;6492;48.128;8.320;2023-05-29T01:11:16;8.60;32.40
12847;DHT22;6492;48.128;8.320;2023-05-29T01:15:33;8.50;33.10
12847;DHT22;6492;48.128;8.320;2023-05-29T01:20:05;8.40;33.80
12847;DHT22;6492;48.128;8.320;2023-05-29T01:24:19;8.30;34.50
12847;DHT22;6492;48.128;8.320;2023-05-29T01:28:32;8.20;35.60
12847;DHT22;6492;48.128;8.320;2023-05-29T01:32:35;8.10;36.60
12847;DHT22;6492;48.128;8.320;2023-05-29T01:36:37;8.10;37.30
12847;DHT22;6492;48.128;8.320;2023-05-29T01:40:39;8.10;37.40
12847;DHT22;6492;48.128;8.320;2023-05-29T01:44:43;8.00;37.80
12847;DHT22;6492;48.128;8.320;2023-05-29T01:48:45;8.00;38.20
12847;DHT22;6492;48.128;8.320;2023-05-29T01:52:47;8.00;38.10
12847;DHT22;6492;48.128;8.320;2023-05-29T01:56:50;8.00;37.80
12847;DHT22;6492;48.128;8.320;2023-05-29T02:00:55;8.00;37.40
12847;DHT22;6492;48.128;8.320;2023-05-29T02:04:57;8.10;37.10
12847;DHT22;6492;48.128;8.320;2023-05-29T02:08:59;8.10;36.80
12847;DHT22;6492;48.128;8.320;2023-05-29T02:13:01;8.00;37.40
12847;DHT22;6492;48.128;8.320;2023-05-29T02:17:04;7.90;37.30
12847;DHT22;6492;48.128;8.320;2023-05-29T02:21:06;7.80;37.70
12847;DHT22;6492;48.128;8.320;2023-05-29T02:25:09;7.70;38.90
12847;DHT22;6492;48.128;8.320;2023-05-29T02:29:10;7.70;39.90
12847;DHT22;6492;48.128;8.320;2023-05-29T02:33:14;7.60;39.80
12847;DHT22;6492;48.128;8.320;2023-05-29T02:37:16;7.90;39.70
12847;DHT22;6492;48.128;8.320;2023-05-29T02:41:18;7.50;41.40
12847;DHT22;6492;48.128;8.320;2023-05-29T02:45:21;7.50;41.40
12847;DHT22;6492;48.128;8.320;2023-05-29T02:49:24;7.70;41.60
12847;DHT22;6492;48.128;8.320;2023-05-29T02:53:26;7.40;43.30
12847;DHT22;6492;48.128;8.320;2023-05-29T02:57:28;7.40;43.60
12847;DHT22;6492;48.128;8.320;2023-05-29T03:01:30;7.30;43.20
12847;DHT22;6492;48.128;8.320;2023-05-29T03:05:34;7.20;43.10
12847;DHT22;6492;48.128;8.320;2023-05-29T03:09:36;7.10;44.50
12847;DHT22;6492;48.128;8.320;2023-05-29T03:13:38;7.00;45.50
12847;DHT22;6492;48.128;8.320;2023-05-29T03:17:41;6.90;46.40
12847;DHT22;6492;48.128;8.320;2023-05-29T03:21:44;7.00;49.00
12847;DHT22;6492;48.128;8.320;2023-05-29T03:25:46;7.00;49.40
12847;DHT22;6492;48.128;8.320;2023-05-29T03:29:48;7.00;49.40
12847;DHT22;6492;48.128;8.320;2023-05-29T03:33:50;7.00;48.90
12847;DHT22;6492;48.128;8.320;2023-05-29T03:37:53;7.00;49.00
12847;DHT22;6492;48.128;8.320;2023-05-29T03:41:55;7.10;48.30
12847;DHT22;6492;48.128;8.320;2023-05-29T03:45:57;7.10;48.30
12847;DHT22;6492;48.128;8.320;2023-05-29T03:49:59;7.20;48.00
12847;DHT22;6492;48.128;8.320;2023-05-29T03:54:36;7.30;46.60
12847;DHT22;6492;48.128;8.320;2023-05-29T03:58:37;7.30;45.30
12847;DHT22;6492;48.128;8.320;2023-05-29T04:02:40;7.30;45.60
12847;DHT22;6492;48.128;8.320;2023-05-29T04:06:42;7.40;45.70
12847;DHT22;6492;48.128;8.320;2023-05-29T04:10:45;7.40;44.70
12847;DHT22;6492;48.128;8.320;2023-05-29T04:14:47;7.30;45.00
12847;DHT22;6492;48.128;8.320;2023-05-29T04:18:48;7.30;45.10
12847;DHT22;6492;48.128;8.320;2023-05-29T04:22:51;7.30;45.30
12847;DHT22;6492;48.128;8.320;2023-05-29T04:26:54;7.30;45.70
12847;DHT22;6492;48.128;8.320;2023-05-29T04:30:56;7.40;46.10
12847;DHT22;6492;48.128;8.320;2023-05-29T04:34:58;7.40;46.80
12847;DHT22;6492;48.128;8.320;2023-05-29T04:39:03;7.50;46.60
12847;DHT22;6492;48.128;8.320;2023-05-29T04:43:06;7.50;46.90
12847;DHT22;6492;48.128;8.320;2023-05-29T04:47:08;7.60;46.90
12847;DHT22;6492;48.128;8.320;2023-05-29T04:51:10;7.60;47.10
12847;DHT22;6492;48.128;8.320;2023-05-29T04:55:12;7.70;47.70
12847;DHT22;6492;48.128;8.320;2023-05-29T04:59:15;7.70;47.80
12847;DHT22;6492;48.128;8.320;2023-05-29T05:03:17;7.80;48.00
12847;DHT22;6492;48.128;8.320;2023-05-29T05:07:22;7.90;47.80
12847;DHT22;6492;48.128;8.320;2023-05-29T05:11:24;8.00;47.00
12847;DHT22;6492;48.128;8.320;2023-05-29T05:15:27;8.10;46.60
12847;DHT22;6492;48.128;8.320;2023-05-29T05:19:29;8.10;45.90
12847;DHT22;6492;48.128;8.320;2023-05-29T05:23:31;8.30;44.70
12847;DHT22;6492;48.128;8.320;2023-05-29T05:27:33;8.30;44.00
12847;DHT22;6492;48.128;8.320;2023-05-29T05:31:36;8.40;43.10
12847;DHT22;6492;48.128;8.320;2023-05-29T05:35:38;8.50;42.50
12847;DHT22;6492;48.128;8.320;2023-05-29T05:39:40;8.60;41.90
12847;DHT22;6492;48.128;8.320;2023-05-29T05:43:42;8.90;41.60
12847;DHT22;6492;48.128;8.320;2023-05-29T05:47:46;8.80;41.20
12847;DHT22;6492;48.128;8.320;2023-05-29T05:51:48;9.00;40.60
12847;DHT22;6492;48.128;8.320;2023-05-29T05:55:50;9.20;40.30
12847;DHT22;6492;48.128;8.320;2023-05-29T05:59:52;9.40;39.20
12847;DHT22;6492;48.128;8.320;2023-05-29T06:03:56;9.60;38.10
12847;DHT22;6492;48.128;8.320;2023-05-29T06:08:28;9.80;36.80
12847;DHT22;6492;48.128;8.320;2023-05-29T06:12:31;10.00;34.60
12847;DHT22;6492;48.128;8.320;2023-05-29T06:16:32;10.50;31.10
12847;DHT22;6492;48.128;8.320;2023-05-29T06:20:36;11.40;26.50
12847;DHT22;6492;48.128;8.320;2023-05-29T06:24:38;11.90;24.40
12847;DHT22;6492;48.128;8.320;2023-05-29T06:28:40;12.60;24.00
12847;DHT22;6492;48.128;8.320;2023-05-29T06:32:51;14.50;19.90
12847;DHT22;6492;48.128;8.320;2023-05-29T06:36:54;17.00;9.80
12847;DHT22;6492;48.128;8.320;2023-05-29T06:40:56;19.30;1.30
12847;DHT22;6492;48.128;8.320;2023-05-29T06:44:58;21.00;1.00
12847;DHT22;6492;48.128;8.320;2023-05-29T06:49:05;22.20;1.00
12847;DHT22;6492;48.128;8.320;2023-05-29T06:53:17;23.50;1.00
12847;DHT22;6492;48.128;8.320;2023-05-29T06:57:20;24.30;1.00
12847;DHT22;6492;48.128;8.320;2023-05-29T07:01:23;24.80;1.00
12847;DHT22;6492;48.128;8.320;2023-05-29T07:05:36;25.50;1.00
12847;DHT22;6492;48.128;8.320;2023-05-29T07:09:58;26.30;1.00
12847;DHT22;6492;48.128;8.320;2023-05-29T07:14:24;26.90;1.00
12847;DHT22;6492;48.128;8.320;2023-05-29T07:18:28;27.40;1.00
12847;DHT22;6492;48.128;8.320;2023-05-29T07:22:39;27.80;1.00
12847;DHT22;6492;48.128;8.320;2023-05-29T07:26:42;28.30;1.00
12847;DHT22;6492;48.128;8.320;2023-05-29T07:30:45;28.50;1.00
12847;DHT22;6492;48.128;8.320;2023-05-29T07:34:47;28.80;1.00
12847;DHT22;6492;48.128;8.320;2023-05-29T07:38:50;29.30;1.00
12847;DHT22;6492;48.128;8.320;2023-05-29T07:43:07;29.30;1.00
12847;DHT22;6492;48.128;8.320;2023-05-29T07:47:12;29.10;1.00
12847;DHT22;6492;48.128;8.320;2023-05-29T07:51:13;29.40;1.00
12847;DHT22;6492;48.128;8.320;2023-05-29T07:55:15;29.50;1.00
12847;DHT22;6492;48.128;8.320;2023-05-29T07:59:18;29.50;1.00
12847;DHT22;6492;48.128;8.320;2023-05-29T08:03:32;29.30;1.00
12847;DHT22;6492;48.128;8.320;2023-05-29T08:07:34;29.10;1.00
12847;DHT22;6492;48.128;8.320;2023-05-29T08:11:36;28.90;1.00
12847;DHT22;6492;48.128;8.320;2023-05-29T08:20:37;29.10;1.00
12847;DHT22;6492;48.128;8.320;2023-05-29T08:24:39;29.20;1.00
12847;DHT22;6492;48.128;8.320;2023-05-29T08:28:41;29.10;1.00
12847;DHT22;6492;48.128;8.320;2023-05-29T08:32:47;28.90;1.00
12847;DHT22;6492;48.128;8.320;2023-05-29T08:36:52;28.70;1.00
12847;DHT22;6492;48.128;8.320;2023-05-29T08:40:56;28.20;1.00
12847;DHT22;6492;48.128;8.320;2023-05-29T08:45:02;27.80;1.00
12847;DHT22;6492;48.128;8.320;2023-05-29T08:49:04;27.50;1.00
12847;DHT22;6492;48.128;8.320;2023-05-29T08:53:13;26.90;1.00
12847;DHT22;6492;48.128;8.320;2023-05-29T08:57:16;26.60;1.00
12847;DHT22;6492;48.128;8.320;2023-05-29T09:01:26;26.30;1.00
12847;DHT22;6492;48.128;8.320;2023-05-29T09:05:28;26.10;1.00
12847;DHT22;6492;48.128;8.320;2023-05-29T09:09:31;26.00;1.00
12847;DHT22;6492;48.128;8.320;2023-05-29T09:13:33;26.00;1.00
12847;DHT22;6492;48.128;8.320;2023-05-29T09:17:36;25.80;1.00
12847;DHT22;6492;48.128;8.320;2023-05-29T09:21:38;25.40;1.00
12847;DHT22;6492;48.128;8.320;2023-05-29T09:25:42;25.30;1.00
12847;DHT22;6492;48.128;8.320;2023-05-29T09:29:45;25.30;1.00
12847;DHT22;6492;48.128;8.320;2023-05-29T09:33:47;25.30;1.00
12847;DHT22;6492;48.128;8.320;2023-05-29T09:37:50;25.60;1.00
12847;DHT22;6492;48.128;8.320;2023-05-29T09:41:53;25.90;1.00
12847;DHT22;6492;48.128;8.320;2023-05-29T09:45:55;26.00;1.00
12847;DHT22;6492;48.128;8.320;2023-05-29T09:49:57;25.90;1.00
12847;DHT22;6492;48.128;8.320;2023-05-29T09:54:13;25.90;1.00
12847;DHT22;6492;48.128;8.320;2023-05-29T09:58:17;26.20;1.00
12847;DHT22;6492;48.128;8.320;2023-05-29T10:02:19;26.30;1.00
12847;DHT22;6492;48.128;8.320;2023-05-29T10:06:22;26.50;1.00
12847;DHT22;6492;48.128;8.320;2023-05-29T10:10:25;26.70;1.00
12847;DHT22;6492;48.128;8.320;2023-05-29T10:14:31;26.90;1.00
12847;DHT22;6492;48.128;8.320;2023-05-29T10:18:37;26.90;1.00
12847;DHT22;6492;48.128;8.320;2023-05-29T10:22:41;26.90;1.00
12847;DHT22;6492;48.128;8.320;2023-05-29T10:26:49;27.00;1.00
12847;DHT22;6492;48.128;8.320;2023-05-29T10:30:56;27.00;1.00
12847;DHT22;6492;48.128;8.320;2023-05-29T10:35:08;27.20;1.00
12847;DHT22;6492;48.128;8.320;2023-05-29T10:39:12;27.40;1.00
12847;DHT22;6492;48.128;8.320;2023-05-29T10:43:32;27.70;1.00
12847;DHT22;6492;48.128;8.320;2023-05-29T10:47:35;27.90;1.00
12847;DHT22;6492;48.128;8.320;2023-05-29T10:51:40;27.70;1.00
12847;DHT22;6492;48.128;8.320;2023-05-29T10:55:42;27.90;1.00
12847;DHT22;6492;48.128;8.320;2023-05-29T10:59:45;27.70;1.00
12847;DHT22;6492;48.128;8.320;2023-05-29T11:03:51;27.80;1.00
12847;DHT22;6492;48.128;8.320;2023-05-29T11:07:56;28.30;1.00
12847;DHT22;6492;48.128;8.320;2023-05-29T11:12:15;28.50;1.00
12847;DHT22;6492;48.128;8.320;2023-05-29T11:16:36;28.90;1.00
12847;DHT22;6492;48.128;8.320;2023-05-29T11:20:45;28.60;1.00
12847;DHT22;6492;48.128;8.320;2023-05-29T11:24:52;28.40;1.00
12847;DHT22;6492;48.128;8.320;2023-05-29T11:28:58;28.70;1.00
12847;DHT22;6492;48.128;8.320;2023-05-29T11:33:02;29.00;1.00
12847;DHT22;6492;48.128;8.320;2023-05-29T11:37:07;29.20;1.00
12847;DHT22;6492;48.128;8.320;2023-05-29T11:41:09;29.30;1.00
12847;DHT22;6492;48.128;8.320;2023-05-29T11:45:12;29.40;1.00
12847;DHT22;6492;48.128;8.320;2023-05-29T11:49:34;29.50;1.00
12847;DHT22;6492;48.128;8.320;2023-05-29T11:58:36;29.70;1.00
12847;DHT22;6492;48.128;8.320;2023-05-29T12:02:47;30.00;1.00
12847;DHT22;6492;48.128;8.320;2023-05-29T12:06:51;30.00;1.00
12847;DHT22;6492;48.128;8.320;2023-05-29T12:10:57;30.10;1.00
12847;DHT22;6492;48.128;8.320;2023-05-29T12:15:01;30.30;1.00
12847;DHT22;6492;48.128;8.320;2023-05-29T12:19:07;30.40;1.00
12847;DHT22;6492;48.128;8.320;2023-05-29T12:23:09;30.10;1.00
12847;DHT22;6492;48.128;8.320;2023-05-29T12:27:12;30.10;1.00
12847;DHT22;6492;48.128;8.320;2023-05-29T12:31:26;30.20;1.00
12847;DHT22;6492;48.128;8.320;2023-05-29T12:35:31;29.90;1.00
12847;DHT22;6492;48.128;8.320;2023-05-29T12:39:33;29.70;1.00
12847;DHT22;6492;48.128;8.320;2023-05-29T12:43:35;29.50;1.00
12847;DHT22;6492;48.128;8.320;2023-05-29T12:47:45;30.00;1.00
12847;DHT22;6492;48.128;8.320;2023-05-29T12:51:47;29.90;1.00
12847;DHT22;6492;48.128;8.320;2023-05-29T12:55:49;29.40;1.00
12847;DHT22;6492;48.128;8.320;2023-05-29T12:59:51;29.20;1.00
12847;DHT22;6492;48.128;8.320;2023-05-29T13:03:56;29.50;1.00
12847;DHT22;6492;48.128;8.320;2023-05-29T13:07:59;29.90;1.00
12847;DHT22;6492;48.128;8.320;2023-05-29T13:12:01;30.20;1.00
12847;DHT22;6492;48.128;8.320;2023-05-29T13:16:03;29.30;1.00
12847;DHT22;6492;48.128;8.320;2023-05-29T13:20:08;28.30;1.00
12847;DHT22;6492;48.128;8.320;2023-05-29T13:24:13;27.90;1.00
12847;DHT22;6492;48.128;8.320;2023-05-29T13:28:15;27.80;1.00
12847;DHT22;6492;48.128;8.320;2023-05-29T13:32:17;28.10;1.00
12847;DHT22;6492;48.128;8.320;2023-05-29T13:36:20;28.40;1.00
12847;DHT22;6492;48.128;8.320;2023-05-29T13:40:25;28.50;1.00
12847;DHT22;6492;48.128;8.320;2023-05-29T13:44:28;28.10;1.00
12847;DHT22;6492;48.128;8.320;2023-05-29T13:48:30;28.20;1.00
12847;DHT22;6492;48.128;8.320;2023-05-29T13:52:35;28.50;1.00
12847;DHT22;6492;48.128;8.320;2023-05-29T13:56:37;28.70;1.00
12847;DHT22;6492;48.128;8.320;2023-05-29T14:00:40;28.70;1.00
12847;DHT22;6492;48.128;8.320;2023-05-29T14:04:48;28.70;1.00
12847;DHT22;6492;48.128;8.320;2023-05-29T14:08:51;28.80;1.00
12847;DHT22;6492;48.128;8.320;2023-05-29T14:12:53;29.30;1.00
12847;DHT22;6492;48.128;8.320;2023-05-29T14:16:55;29.40;1.00
12847;DHT22;6492;48.128;8.320;2023-05-29T14:20:58;29.20;1.00
12847;DHT22;6492;48.128;8.320;2023-05-29T14:25:02;29.40;1.00
12847;DHT22;6492;48.128;8.320;2023-05-29T14:29:05;29.40;1.00
12847;DHT22;6492;48.128;8.320;2023-05-29T14:33:07;29.40;1.00
12847;DHT22;6492;48.128;8.320;2023-05-29T14:37:09;29.40;1.00
12847;DHT22;6492;48.128;8.320;2023-05-29T14:41:26;29.50;1.00
12847;DHT22;6492;48.128;8.320;2023-05-29T14:45:28;29.70;1.00
12847;DHT22;6492;48.128;8.320;2023-05-29T14:49:30;29.70;1.00
12847;DHT22;6492;48.128;8.320;2023-05-29T14:53:35;29.70;1.00
12847;DHT22;6492;48.128;8.320;2023-05-29T14:57:41;29.50;1.00
12847;DHT22;6492;48.128;8.320;2023-05-29T15:01:43;29.00;1.00
12847;DHT22;6492;48.128;8.320;2023-05-29T15:05:45;28.80;1.00
12847;DHT22;6492;48.128;8.320;2023-05-29T15:09:47;28.90;1.00
12847;DHT22;6492;48.128;8.320;2023-05-29T15:13:50;29.00;1.00
12847;DHT22;6492;48.128;8.320;2023-05-29T15:17:54;29.20;1.00
12847;DHT22;6492;48.128;8.320;2023-05-29T15:21:57;29.00;1.00
12847;DHT22;6492;48.128;8.320;2023-05-29T15:25:59;29.10;1.00
12847;DHT22;6492;48.128;8.320;2023-05-29T15:30:12;28.80;1.00
12847;DHT22;6492;48.128;8.320;2023-05-29T15:34:15;29.00;1.00
12847;DHT22;6492;48.128;8.320;2023-05-29T15:38:16;29.00;1.00
12847;DHT22;6492;48.128;8.320;2023-05-29T15:42:18;29.00;1.00
12847;DHT22;6492;48.128;8.320;2023-05-29T15:46:23;28.90;1.00
12847;DHT22;6492;48.128;8.320;2023-05-29T15:50:25;29.00;1.00
12847;DHT22;6492;48.128;8.320;2023-05-29T15:54:26;29.20;1.00
12847;DHT22;6492;48.128;8.320;2023-05-29T15:58:28;29.00;1.00
12847;DHT22;6492;48.128;8.320;2023-05-29T16:02:31;28.60;1.00
12847;DHT22;6492;48.128;8.320;2023-05-29T16:06:33;28.50;1.00
12847;DHT22;6492;48.128;8.320;2023-05-29T16:10:38;28.30;1.00
12847;DHT22;6492;48.128;8.320;2023-05-29T16:14:49;28.10;1.00
12847;DHT22;6492;48.128;8.320;2023-05-29T16:18:52;28.00;1.00
12847;DHT22;6492;48.128;8.320;2023-05-29T16:22:53;28.00;1.00
12847;DHT22;6492;48.128;8.320;2023-05-29T16:26:56;27.80;1.00
12847;DHT22;6492;48.128;8.320;2023-05-29T16:30:58;27.80;1.00
12847;DHT22;6492;48.128;8.320;2023-05-29T16:35:01;27.40;1.00
12847;DHT22;6492;48.128;8.320;2023-05-29T16:39:10;27.20;1.00
12847;DHT22;6492;48.128;8.320;2023-05-29T16:43:12;27.10;1.00
12847;DHT22;6492;48.128;8.320;2023-05-29T16:47:14;27.00;1.00
12847;DHT22;6492;48.128;8.320;2023-05-29T16:51:17;26.80;1.00
12847;DHT22;6492;48.128;8.320;2023-05-29T16:55:19;26.50;1.00
12847;DHT22;6492;48.128;8.320;2023-05-29T16:59:20;26.00;1.00
12847;DHT22;6492;48.128;8.320;2023-05-29T17:03:23;25.90;1.00
12847;DHT22;6492;48.128;8.320;2023-05-29T17:07:26;25.90;1.00
12847;DHT22;6492;48.128;8.320;2023-05-29T17:11:29;25.80;1.00
12847;DHT22;6492;48.128;8.320;2023-05-29T17:15:31;25.70;1.00
12847;DHT22;6492;48.128;8.320;2023-05-29T17:19:36;25.30;1.00
12847;DHT22;6492;48.128;8.320;2023-05-29T17:23:42;25.10;1.00
12847;DHT22;6492;48.128;8.320;2023-05-29T17:27:52;24.80;1.00
12847;DHT22;6492;48.128;8.320;2023-05-29T17:31:55;24.70;1.00
12847;DHT22;6492;48.128;8.320;2023-05-29T17:35:56;24.60;1.00
12847;DHT22;6492;48.128;8.320;2023-05-29T17:40:01;24.40;1.00
12847;DHT22;6492;48.128;8.320;2023-05-29T17:44:02;24.10;1.00
12847;DHT22;6492;48.128;8.320;2023-05-29T17:48:10;23.90;1.00
12847;DHT22;6492;48.128;8.320;2023-05-29T17:52:11;23.60;1.00
12847;DHT22;6492;48.128;8.320;2023-05-29T17:56:17;23.50;1.00
12847;DHT22;6492;48.128;8.320;2023-05-29T18:00:19;23.30;1.00
12847;DHT22;6492;48.128;8.320;2023-05-29T18:04:21;23.20;1.00
12847;DHT22;6492;48.128;8.320;2023-05-29T18:08:23;23.00;1.00
12847;DHT22;6492;48.128;8.320;2023-05-29T18:12:27;22.80;1.00
12847;DHT22;6492;48.128;8.320;2023-05-29T18:16:37;22.70;1.00
12847;DHT22;6492;48.128;8.320;2023-05-29T18:20:45;22.30;1.00
12847;DHT22;6492;48.128;8.320;2023-05-29T18:24:49;22.00;1.00
12847;DHT22;6492;48.128;8.320;2023-05-29T18:28:58;21.80;1.00
12847;DHT22;6492;48.128;8.320;2023-05-29T18:33:14;21.50;1.00
12847;DHT22;6492;48.128;8.320;2023-05-29T18:37:18;21.10;1.00
12847;DHT22;6492;48.128;8.320;2023-05-29T18:41:37;20.80;1.00
12847;DHT22;6492;48.128;8.320;2023-05-29T18:45:43;20.40;1.00
12847;DHT22;6492;48.128;8.320;2023-05-29T18:49:47;20.00;1.00
12847;DHT22;6492;48.128;8.320;2023-05-29T18:53:49;19.70;1.00
12847;DHT22;6492;48.128;8.320;2023-05-29T18:57:57;19.10;1.00
12847;DHT22;6492;48.128;8.320;2023-05-29T19:02:00;18.60;1.00
12847;DHT22;6492;48.128;8.320;2023-05-29T19:06:02;17.90;1.00
12847;DHT22;6492;48.128;8.320;2023-05-29T19:10:07;17.40;1.00
12847;DHT22;6492;48.128;8.320;2023-05-29T19:14:11;16.90;1.00
12847;DHT22;6492;48.128;8.320;2023-05-29T19:18:16;16.50;1.00
12847;DHT22;6492;48.128;8.320;2023-05-29T19:22:18;16.10;1.00
12847;DHT22;6492;48.128;8.320;2023-05-29T19:26:20;15.80;1.00
12847;DHT22;6492;48.128;8.320;2023-05-29T19:30:23;15.50;1.00
12847;DHT22;6492;48.128;8.320;2023-05-29T19:34:26;15.10;1.00
12847;DHT22;6492;48.128;8.320;2023-05-29T19:38:47;14.90;1.00
12847;DHT22;6492;48.128;8.320;2023-05-29T19:43:06;14.70;1.00
12847;DHT22;6492;48.128;8.320;2023-05-29T19:47:08;14.40;1.00
12847;DHT22;6492;48.128;8.320;2023-05-29T19:51:11;14.20;1.00
12847;DHT22;6492;48.128;8.320;2023-05-29T19:55:12;14.10;1.10
12847;DHT22;6492;48.128;8.320;2023-05-29T19:59:31;13.90;1.30
12847;DHT22;6492;48.128;8.320;2023-05-29T20:03:33;13.90;2.40
12847;DHT22;6492;48.128;8.320;2023-05-29T20:07:36;13.80;2.50
12847;DHT22;6492;48.128;8.320;2023-05-29T20:11:38;13.60;3.30
12847;DHT22;6492;48.128;8.320;2023-05-29T20:15:41;13.50;4.50
12847;DHT22;6492;48.128;8.320;2023-05-29T20:19:42;13.40;5.40
12847;DHT22;6492;48.128;8.320;2023-05-29T20:23:48;13.30;5.30
12847;DHT22;6492;48.128;8.320;2023-05-29T20:27:53;13.20;5.50
12847;DHT22;6492;48.128;8.320;2023-05-29T20:31:58;13.20;6.30
12847;DHT22;6492;48.128;8.320;2023-05-29T20:36:00;13.20;6.50
12847;DHT22;6492;48.128;8.320;2023-05-29T20:40:17;13.20;6.40
12847;DHT22;6492;48.128;8.320;2023-05-29T20:44:20;13.10;6.40
12847;DHT22;6492;48.128;8.320;2023-05-29T20:48:28;13.10;7.00
12847;DHT22;6492;48.128;8.320;2023-05-29T20:52:32;12.90;7.90
12847;DHT22;6492;48.128;8.320;2023-05-29T20:56:35;12.90;7.40
12847;DHT22;6492;48.128;8.320;2023-05-29T21:00:37;12.80;8.30
12847;DHT22;6492;48.128;8.320;2023-05-29T21:04:40;12.60;8.20
12847;DHT22;6492;48.128;8.320;2023-05-29T21:08:43;12.60;8.10
12847;DHT22;6492;48.128;8.320;2023-05-29T21:12:46;12.50;8.70
12847;DHT22;6492;48.128;8.320;2023-05-29T21:16:48;12.50;9.00
12847;DHT22;6492;48.128;8.320;2023-05-29T21:20:50;12.30;9.50
12847;DHT22;6492;48.128;8.320;2023-05-29T21:24:52;12.20;9.90
12847;DHT22;6492;48.128;8.320;2023-05-29T21:28:56;12.20;10.00
12847;DHT22;6492;48.128;8.320;2023-05-29T21:32:57;12.00;10.40
12847;DHT22;6492;48.128;8.320;2023-05-29T21:37:01;11.90;10.50
12847;DHT22;6492;48.128;8.320;2023-05-29T21:41:06;11.90;10.50
12847;DHT22;6492;48.128;8.320;2023-05-29T21:45:10;11.80;10.70
12847;DHT22;6492;48.128;8.320;2023-05-29T21:49:11;11.70;11.50
12847;DHT22;6492;48.128;8.320;2023-05-29T21:53:19;11.60;12.80
12847;DHT22;6492;48.128;8.320;2023-05-29T21:57:35;11.50;13.10
12847;DHT22;6492;48.128;8.320;2023-05-29T22:01:39;11.40;13.30
12847;DHT22;6492;48.128;8.320;2023-05-29T22:05:41;11.40;12.90
12847;DHT22;6492;48.128;8.320;2023-05-29T22:09:43;11.30;13.30
12847;DHT22;6492;48.128;8.320;2023-05-29T22:13:45;11.30;14.20
12847;DHT22;6492;48.128;8.320;2023-05-29T22:17:48;11.20;14.30
12847;DHT22;6492;48.128;8.320;2023-05-29T22:21:53;11.20;14.90
12847;DHT22;6492;48.128;8.320;2023-05-29T22:25:54;11.00;14.60
12847;DHT22;6492;48.128;8.320;2023-05-29T22:29:59;10.90;15.60
12847;DHT22;6492;48.128;8.320;2023-05-29T22:34:02;11.30;15.90
12847;DHT22;6492;48.128;8.320;2023-05-29T22:38:04;10.80;15.40
12847;DHT22;6492;48.128;8.320;2023-05-29T22:42:25;10.90;15.40
12847;DHT22;6492;48.128;8.320;2023-05-29T22:46:27;10.90;15.00
12847;DHT22;6492;48.128;8.320;2023-05-29T22:50:30;10.90;15.30
12847;DHT22;6492;48.128;8.320;2023-05-29T22:54:32;10.90;15.00
12847;DHT22;6492;48.128;8.320;2023-05-29T22:58:34;11.00;14.80
12847;DHT22;6492;48.128;8.320;2023-05-29T23:02:36;11.10;14.80
12847;DHT22;6492;48.128;8.320;2023-05-29T23:06:40;11.10;14.10
12847;DHT22;6492;48.128;8.320;2023-05-29T23:10:41;11.10;14.00
12847;DHT22;6492;48.128;8.320;2023-05-29T23:14:43;11.10;14.60
12847;DHT22;6492;48.128;8.320;2023-05-29T23:18:45;11.10;14.10
12847;DHT22;6492;48.128;8.320;2023-05-29T23:22:49;11.00;15.00
12847;DHT22;6492;48.128;8.320;2023-05-29T23:26:51;11.00;14.90
12847;DHT22;6492;48.128;8.320;2023-05-29T23:30:53;10.90;15.30
12847;DHT22;6492;48.128;8.320;2023-05-29T23:34:55;10.80;15.60
12847;DHT22;6492;48.128;8.320;2023-05-29T23:38:58;10.70;15.70
12847;DHT22;6492;48.128;8.320;2023-05-29T23:43:00;10.70;15.70
12847;DHT22;6492;48.128;8.320;2023-05-29T23:47:04;10.70;16.20
12847;DHT22;6492;48.128;8.320;2023-05-29T23:51:05;10.60;16.50
12847;DHT22;6492;48.128;8.320;2023-05-29T23:55:09;10.50;17.10
12847;DHT22;6492;48.128;8.320;2023-05-29T23:59:11;10.40;18.10
